Kirishima, Japan

10:41 PM JST on 六月 23, 2017 (GMT +0900)
Kanoya | | Change Station

高度 223 ft 31.37 °N, 130.83 °E | Updated 16 minutes ago

雨
72 °F
体感気温 72 °F
7
風 変数 風 から 北東

今日
高い -- | 低 -- °F
--% 降水確率
昨日
高い -- | 低 -- °F
Precip. -- インチ
気圧 29.71 インチ
視程 -9999.0 マイル
やや曇 300 ft
だいたい曇 700 ft
曇 1500 ft
わずか 1500 ft
露点温度 70 °F
湿度 94%
降水 0.00 インチ
積雪深 利用不可。
5:12 AM 7:25 PM
二十六夜, 0% visible
SPECI RJFY 231325Z 04006KT 3200 -SHRA BR SCT003 BKN007 OVC015 FEW015TCU 22/21 Q1006 RMK 4ST003 6ST007 8CU015 1TCU015 A2972 TCU 10KM NE MOV NE
気圧 29.71 インチ
視程 -9999.0 マイル
やや曇 300 ft
だいたい曇 700 ft
曇 1500 ft
わずか 1500 ft
露点温度 70 °F
湿度 94%
降水 0.00 インチ
積雪深 利用不可。
5:12 AM 7:25 PM
二十六夜, 0% visible
SPECI RJFY 231325Z 04006KT 3200 -SHRA BR SCT003 BKN007 OVC015 FEW015TCU 22/21 Q1006 RMK 4ST003 6ST007 8CU015 1TCU015 A2972 TCU 10KM NE MOV NE

Get Severe Weather Alerts

Thanks for signing up!

Be on the lookout for a verification email in your inbox.

You'll start receiving the daily forecast at 6 AM.

×

10-Day Weather Forecast

No radar image for this location.
×

Almanac

天文

Jun. 23, 2017 入り
実時間
常用薄明
航海薄明
天文薄明
可視光の長さ
可照時間
Tomorrow will be .
, % of the Moon is Illuminated

今日の極値

Country Highs Country Lows

Community

Category 6

Welcome to Category 6. This is the collective home for Weather Underground's featured writeups by Dr. Jeff Masters (right), Bob Henson (left), Chris Burt, and other regular contributors.

Nearby

空気品質

  空気品質 大気質指数 汚染物質
Not available.

積雪深

Station Depth 高度

地震活動

Distance Mag. Time & Date
Minimum magnitude displayed is 2.5.

沿岸の水温

地名 気温

Stations

最寄りの気象観測所

観測所位置 温度 体感気温(寒さ) 露点温度 湿度 Precip. 高度 更新日時 タイプする